createdAt,value
2018-11-23T00:00:19.374Z,21.27
2018-11-23T00:02:54.058Z,20.80
2018-11-23T00:05:28.249Z,20.03
2018-11-23T00:08:01.924Z,21.10
2018-11-23T00:10:35.773Z,20.73
2018-11-23T00:13:09.902Z,20.97
2018-11-23T00:15:43.908Z,21.00
2018-11-23T00:18:18.038Z,19.87
2018-11-23T00:20:52.044Z,21.10
2018-11-23T00:23:26.228Z,21.47
2018-11-23T00:26:00.332Z,19.97
2018-11-23T00:28:34.326Z,20.53
2018-11-23T00:31:08.606Z,21.87
2018-11-23T00:33:42.547Z,19.87
2018-11-23T00:36:16.761Z,19.37
2018-11-23T00:38:50.545Z,20.30
2018-11-23T00:41:24.594Z,20.00
2018-11-23T00:43:58.732Z,20.77
2018-11-23T00:46:32.899Z,19.73
2018-11-23T00:49:06.980Z,20.50
2018-11-23T00:51:40.874Z,21.40
2018-11-23T00:54:14.713Z,20.53
2018-11-23T00:56:48.813Z,22.37
2018-11-23T00:59:22.677Z,22.57
2018-11-23T01:02:02.163Z,21.83
2018-11-23T01:04:36.867Z,21.47
2018-11-23T01:07:11.253Z,21.73
2018-11-23T01:09:45.189Z,20.53
2018-11-23T01:12:19.477Z,21.47
2018-11-23T01:14:54.000Z,22.33
2018-11-23T01:17:27.910Z,22.03
2018-11-23T01:20:01.710Z,21.77
2018-11-23T01:22:36.586Z,22.60
2018-11-23T01:25:12.306Z,23.30
2018-11-23T01:27:47.386Z,22.60
2018-11-23T01:30:25.890Z,21.43
2018-11-23T01:33:00.005Z,22.07
2018-11-23T01:35:34.069Z,22.40
2018-11-23T01:38:08.013Z,21.90
2018-11-23T01:40:42.015Z,22.50
2018-11-23T01:43:16.149Z,22.43
2018-11-23T01:45:49.953Z,21.30
2018-11-23T01:48:24.079Z,23.10
2018-11-23T01:50:58.096Z,22.77
2018-11-23T01:53:32.065Z,23.93
2018-11-23T01:56:06.268Z,23.53
2018-11-23T01:58:40.408Z,23.33
2018-11-23T02:01:14.697Z,24.70
2018-11-23T02:03:48.837Z,24.63
2018-11-23T02:06:22.818Z,24.77
2018-11-23T02:08:56.852Z,25.13
2018-11-23T02:11:31.020Z,24.90
2018-11-23T02:14:05.039Z,25.77
2018-11-23T02:16:38.923Z,25.80
2018-11-23T02:19:13.040Z,24.40
2018-11-23T02:21:46.911Z,26.47
2018-11-23T02:24:21.034Z,24.87
2018-11-23T02:26:54.837Z,25.23
2018-11-23T02:29:29.529Z,26.40
2018-11-23T02:32:03.573Z,24.90
2018-11-23T02:37:18.495Z,24.40
2018-11-23T02:39:52.494Z,26.63
2018-11-23T02:42:26.638Z,26.10
2018-11-23T02:45:00.811Z,25.00
2018-11-23T02:47:34.869Z,26.33
2018-11-23T02:50:09.043Z,25.17
2018-11-23T02:52:43.460Z,25.70
2018-11-23T02:55:18.219Z,25.70
2018-11-23T02:57:52.880Z,25.20
2018-11-23T03:00:26.963Z,25.03
2018-11-23T03:03:00.919Z,24.97
2018-11-23T03:05:34.903Z,25.17
2018-11-23T03:08:13.899Z,25.47
2018-11-23T03:10:48.044Z,24.23
2018-11-23T03:13:22.603Z,25.63
2018-11-23T03:15:56.768Z,25.13
2018-11-23T03:18:30.852Z,25.53
2018-11-23T03:21:04.786Z,26.20
2018-11-23T03:23:38.951Z,25.70
2018-11-23T03:26:12.668Z,27.13
2018-11-23T03:28:46.733Z,26.10
2018-11-23T03:31:21.503Z,26.10
2018-11-23T03:33:55.614Z,27.43
2018-11-23T03:36:29.428Z,25.93
2018-11-23T03:39:05.073Z,26.10
2018-11-23T03:41:38.831Z,27.17
2018-11-23T03:44:12.737Z,26.30
2018-11-23T03:46:46.511Z,27.17
2018-11-23T03:49:20.460Z,26.77
2018-11-23T03:51:54.505Z,26.87
2018-11-23T03:54:28.264Z,26.80
2018-11-23T03:57:02.226Z,25.87
2018-11-23T03:59:36.398Z,26.53
2018-11-23T04:02:10.085Z,28.33
2018-11-23T04:04:44.043Z,26.40
2018-11-23T04:07:17.948Z,28.07
2018-11-23T04:09:52.364Z,26.17
2018-11-23T04:12:26.841Z,26.53
2018-11-23T04:15:01.484Z,26.33
2018-11-23T04:17:35.788Z,26.90
2018-11-23T04:20:11.616Z,26.20
2018-11-23T04:22:45.741Z,26.63
2018-11-23T04:25:19.834Z,27.50
2018-11-23T04:27:53.855Z,28.63
2018-11-23T04:30:27.989Z,28.07
2018-11-23T04:33:01.989Z,28.17
2018-11-23T04:35:35.984Z,26.13
2018-11-23T04:38:09.760Z,27.93
2018-11-23T04:40:43.824Z,27.63
2018-11-23T04:43:17.568Z,28.90
2018-11-23T04:45:52.053Z,29.20
2018-11-23T04:48:26.035Z,31.13
2018-11-23T04:50:59.997Z,28.63
2018-11-23T04:53:33.825Z,26.73
2018-11-23T04:56:07.885Z,27.63
2018-11-23T04:58:41.885Z,26.53
2018-11-23T05:01:15.880Z,27.67
2018-11-23T05:03:49.634Z,27.47
2018-11-23T05:06:23.793Z,26.03
2018-11-23T05:08:57.624Z,25.57
2018-11-23T05:11:32.159Z,24.87
2018-11-23T05:14:06.699Z,25.20
2018-11-23T05:16:40.611Z,25.80
2018-11-23T05:19:14.643Z,26.70
2018-11-23T05:21:48.644Z,24.40
2018-11-23T05:24:22.768Z,27.53
2018-11-23T05:26:56.750Z,27.13
2018-11-23T05:29:30.764Z,28.07
2018-11-23T05:32:04.875Z,30.43
2018-11-23T05:34:39.169Z,30.23
2018-11-23T05:37:13.962Z,27.53
2018-11-23T05:39:47.739Z,27.67
2018-11-23T05:42:21.768Z,27.00
2018-11-23T05:44:56.227Z,27.87
2018-11-23T05:47:30.184Z,25.73
2018-11-23T05:50:06.168Z,28.60
2018-11-23T05:52:40.203Z,27.90
2018-11-23T05:55:14.392Z,26.43
2018-11-23T05:57:48.883Z,26.07
2018-11-23T06:00:24.242Z,27.03
2018-11-23T06:02:58.154Z,28.73
2018-11-23T06:05:31.893Z,26.43
2018-11-23T06:08:05.865Z,26.60
2018-11-23T06:10:39.965Z,27.53
2018-11-23T06:13:14.125Z,25.57
2018-11-23T06:15:47.846Z,27.43
2018-11-23T06:18:21.705Z,28.63
2018-11-23T06:20:55.868Z,27.63
2018-11-23T06:23:29.838Z,28.20
2018-11-23T06:26:12.332Z,27.50
2018-11-23T06:28:46.321Z,28.80
2018-11-23T06:31:21.365Z,28.93
2018-11-23T06:33:55.391Z,29.47
2018-11-23T06:36:30.174Z,26.43
2018-11-23T06:39:06.058Z,27.20
2018-11-23T06:41:40.312Z,27.90
2018-11-23T06:44:14.419Z,28.33
2018-11-23T06:46:48.459Z,26.53
2018-11-23T06:49:22.599Z,27.87
2018-11-23T06:51:56.649Z,28.40
2018-11-23T06:54:30.919Z,30.77
2018-11-23T06:57:04.913Z,32.17
2018-11-23T06:59:38.882Z,30.47
2018-11-23T07:02:13.120Z,31.57
2018-11-23T07:04:47.259Z,29.80
2018-11-23T07:07:21.304Z,28.03
2018-11-23T07:09:55.323Z,28.63
2018-11-23T07:12:29.213Z,28.23
2018-11-23T07:15:03.536Z,26.30
2018-11-23T07:17:37.967Z,26.23
2018-11-23T07:20:13.196Z,29.13
2018-11-23T07:22:54.138Z,29.37
2018-11-23T07:25:28.136Z,27.83
2018-11-23T07:28:02.085Z,26.83
2018-11-23T07:30:36.257Z,29.10
2018-11-23T07:33:10.275Z,27.73
2018-11-23T07:35:44.677Z,26.20
2018-11-23T07:38:18.699Z,27.27
2018-11-23T07:41:04.029Z,26.00
2018-11-23T07:43:38.247Z,26.30
2018-11-23T07:46:12.213Z,26.10
2018-11-23T07:48:46.667Z,26.40
2018-11-23T07:51:20.894Z,26.83
2018-11-23T07:53:54.704Z,25.50
2018-11-23T07:56:28.817Z,26.33
2018-11-23T07:59:02.502Z,25.40
2018-11-23T08:01:36.429Z,24.87
2018-11-23T08:04:10.248Z,27.23
2018-11-23T08:06:44.382Z,26.03
2018-11-23T08:09:18.187Z,26.27
2018-11-23T08:11:52.603Z,24.87
2018-11-23T08:14:26.703Z,27.23
2018-11-23T08:17:00.692Z,24.37
2018-11-23T08:19:34.702Z,25.77
2018-11-23T08:22:08.737Z,24.90
2018-11-23T08:24:42.678Z,25.60
2018-11-23T08:27:16.608Z,25.60
2018-11-23T08:29:51.100Z,26.20
2018-11-23T08:32:25.112Z,25.40
2018-11-23T08:34:59.183Z,25.67
2018-11-23T08:37:33.158Z,24.20
2018-11-23T08:47:13.403Z,24.40
2018-11-23T08:49:47.305Z,22.73
2018-11-23T08:52:21.186Z,22.57
2018-11-23T08:54:55.182Z,22.33
2018-11-23T08:57:29.152Z,22.93
2018-11-23T09:00:04.382Z,23.10
2018-11-23T09:02:38.198Z,23.20
2018-11-23T09:05:12.538Z,23.30
2018-11-23T09:07:47.465Z,22.97
2018-11-23T09:10:23.137Z,21.63
2018-11-23T09:12:58.697Z,21.20
2018-11-23T09:15:32.686Z,20.63
2018-11-23T09:18:06.659Z,20.90
2018-11-23T09:20:40.745Z,22.13
2018-11-23T09:23:14.545Z,20.93
2018-11-23T09:25:48.287Z,22.00
2018-11-23T09:28:22.199Z,21.83
2018-11-23T09:30:56.042Z,21.20
2018-11-23T09:33:30.170Z,21.67
2018-11-23T09:36:04.432Z,20.63
2018-11-23T09:38:38.455Z,21.27
2018-11-23T09:41:12.363Z,20.93
2018-11-23T09:43:46.467Z,19.93
2018-11-23T09:46:20.477Z,20.70
2018-11-23T09:48:54.666Z,21.00
2018-11-23T09:51:28.521Z,19.17
2018-11-23T09:54:02.687Z,19.70
2018-11-23T09:56:36.746Z,19.80
2018-11-23T09:59:10.989Z,20.20
2018-11-23T10:01:45.004Z,18.40
2018-11-23T10:04:18.977Z,19.10
2018-11-23T10:06:53.236Z,20.67
2018-11-23T10:09:34.063Z,18.27
2018-11-23T10:12:07.948Z,19.63
2018-11-23T10:14:42.417Z,18.67
2018-11-23T10:17:16.425Z,18.07
2018-11-23T10:19:50.601Z,19.53
2018-11-23T10:22:25.245Z,19.23
2018-11-23T10:24:59.533Z,19.17
2018-11-23T10:27:33.602Z,18.83
2018-11-23T10:30:12.886Z,19.00
2018-11-23T10:32:47.942Z,18.73
2018-11-23T10:35:21.828Z,19.43
2018-11-23T10:37:57.049Z,19.00
2018-11-23T10:40:32.937Z,18.27
2018-11-23T10:43:07.467Z,18.33
2018-11-23T10:45:41.473Z,18.57
2018-11-23T10:48:15.692Z,18.80
2018-11-23T10:50:49.737Z,18.80
2018-11-23T10:53:23.886Z,18.80
2018-11-23T10:55:57.822Z,19.30
2018-11-23T10:58:31.858Z,18.90
2018-11-23T11:01:11.475Z,18.67
2018-11-23T11:03:51.508Z,19.07
2018-11-23T11:06:30.909Z,21.83
2018-11-23T11:09:08.054Z,20.00
2018-11-23T11:11:42.403Z,18.67
2018-11-23T11:14:16.733Z,18.90
2018-11-23T11:16:50.836Z,18.53
2018-11-23T11:19:24.672Z,19.10
2018-11-23T11:21:58.891Z,20.07
2018-11-23T11:24:32.898Z,19.10
2018-11-23T11:27:06.824Z,19.67
2018-11-23T11:29:40.963Z,18.73
2018-11-23T11:32:15.054Z,19.13
2018-11-23T11:34:49.147Z,19.07
2018-11-23T11:37:23.127Z,17.67
2018-11-23T11:39:57.214Z,19.67
2018-11-23T11:42:31.373Z,19.90
2018-11-23T11:45:07.143Z,19.20
2018-11-23T11:47:41.792Z,18.90
2018-11-23T11:50:15.998Z,18.73
2018-11-23T11:52:50.308Z,17.93
2018-11-23T11:55:24.464Z,17.33
2018-11-23T11:57:58.403Z,17.40
2018-11-23T12:00:32.206Z,18.30
2018-11-23T12:03:06.754Z,18.57
2018-11-23T12:05:40.903Z,18.83
2018-11-23T12:08:14.792Z,18.77
2018-11-23T12:10:48.803Z,19.40
2018-11-23T12:13:22.706Z,18.57
2018-11-23T12:15:57.294Z,18.20
2018-11-23T12:18:31.503Z,19.07
2018-11-23T12:21:05.819Z,19.47
2018-11-23T12:23:39.813Z,19.97
2018-11-23T12:26:13.918Z,18.50
2018-11-23T12:28:48.036Z,18.40
2018-11-23T12:31:22.161Z,18.37
2018-11-23T12:33:56.049Z,19.13
2018-11-23T12:36:30.001Z,18.67
2018-11-23T12:39:05.482Z,18.83
2018-11-23T12:41:39.712Z,18.80
2018-11-23T12:44:13.913Z,18.40
2018-11-23T12:46:48.127Z,18.93
2018-11-23T12:49:22.169Z,19.13
2018-11-23T12:51:56.151Z,18.60
2018-11-23T12:54:30.263Z,18.23
2018-11-23T12:57:04.456Z,19.73
2018-11-23T12:59:38.589Z,19.73
2018-11-23T13:02:13.167Z,19.27
2018-11-23T13:04:47.228Z,19.70
2018-11-23T13:07:21.272Z,19.60
2018-11-23T13:09:55.284Z,19.17
2018-11-23T13:12:29.490Z,18.63
2018-11-23T13:15:03.396Z,20.13
2018-11-23T13:17:37.691Z,19.53
2018-11-23T13:20:13.506Z,19.07
2018-11-23T13:22:47.613Z,18.87
2018-11-23T13:25:23.343Z,18.67
2018-11-23T13:27:57.618Z,19.27
2018-11-23T13:30:34.128Z,18.67
2018-11-23T13:33:08.036Z,19.27
2018-11-23T13:35:42.036Z,18.87
2018-11-23T13:38:16.449Z,19.17
2018-11-23T13:40:50.644Z,18.57
2018-11-23T13:43:24.653Z,18.27
2018-11-23T13:45:58.824Z,18.83
2018-11-23T13:48:32.613Z,19.33
2018-11-23T13:51:06.609Z,19.37
2018-11-23T13:53:40.699Z,20.40
2018-11-23T13:56:15.303Z,20.37
2018-11-23T13:58:49.474Z,19.67
2018-11-23T14:01:23.567Z,19.63
2018-11-23T14:03:57.792Z,19.33
2018-11-23T14:06:31.888Z,21.43
2018-11-23T14:09:08.842Z,19.13
2018-11-23T14:11:42.971Z,21.27
2018-11-23T14:14:17.480Z,19.07
2018-11-23T14:16:51.323Z,19.20
2018-11-23T14:19:25.333Z,20.23
2018-11-23T14:21:59.476Z,21.03
2018-11-23T14:24:33.309Z,19.77
2018-11-23T14:27:07.379Z,19.33
2018-11-23T14:29:41.227Z,21.00
2018-11-23T14:32:15.192Z,20.33
2018-11-23T14:34:49.386Z,20.70
2018-11-23T14:37:23.658Z,20.83
2018-11-23T14:39:57.686Z,20.37
2018-11-23T14:42:31.498Z,19.53
2018-11-23T14:45:08.615Z,19.33
2018-11-23T14:47:42.796Z,20.67
2018-11-23T14:50:20.279Z,20.40
2018-11-23T14:52:55.137Z,20.03
2018-11-23T14:55:29.698Z,20.53
2018-11-23T14:58:03.805Z,20.80
2018-11-23T15:00:38.294Z,21.87
2018-11-23T15:03:12.591Z,22.40
2018-11-23T15:05:46.560Z,22.97
2018-11-23T15:08:20.785Z,22.37
2018-11-23T15:10:54.938Z,20.97
2018-11-23T15:13:29.120Z,21.10
2018-11-23T15:16:03.376Z,22.20
2018-11-23T15:18:38.158Z,21.93
2018-11-23T15:21:12.121Z,21.70
2018-11-23T15:23:46.269Z,21.50
2018-11-23T15:26:20.228Z,22.63
2018-11-23T15:28:54.778Z,22.00
2018-11-23T15:31:28.613Z,23.90
2018-11-23T15:34:02.652Z,24.63
2018-11-23T15:36:36.716Z,22.87
2018-11-23T15:39:12.447Z,23.70
2018-11-23T15:41:46.227Z,23.23
2018-11-23T15:44:20.291Z,24.00
2018-11-23T15:46:54.457Z,23.50
2018-11-23T15:49:28.406Z,25.50
2018-11-23T15:52:02.357Z,23.77
2018-11-23T15:54:36.426Z,22.57
2018-11-23T15:57:10.697Z,22.50
2018-11-23T15:59:44.905Z,23.40
2018-11-23T16:02:19.345Z,24.63
2018-11-23T16:04:53.183Z,24.13
2018-11-23T16:07:27.607Z,24.27
2018-11-23T16:10:01.697Z,23.83
2018-11-23T16:12:36.048Z,24.23
2018-11-23T16:15:10.431Z,25.43
2018-11-23T16:17:44.488Z,25.07
2018-11-23T16:20:20.940Z,25.97
2018-11-23T16:22:56.285Z,26.23
2018-11-23T16:25:30.497Z,24.40
2018-11-23T16:28:05.851Z,25.17
2018-11-23T16:30:41.508Z,25.27
2018-11-23T16:33:17.648Z,24.80
2018-11-23T16:35:51.720Z,27.03
2018-11-23T16:38:25.801Z,26.40
2018-11-23T16:40:59.669Z,25.40
2018-11-23T16:43:33.582Z,24.70
2018-11-23T16:46:07.441Z,24.83
2018-11-23T16:48:41.729Z,28.97
2018-11-23T16:51:16.147Z,27.63
2018-11-23T16:53:50.282Z,26.70
2018-11-23T16:56:24.367Z,26.27
2018-11-23T16:58:58.757Z,24.77
2018-11-23T17:01:33.167Z,24.70
2018-11-23T17:04:07.122Z,23.90
2018-11-23T17:06:41.203Z,26.53
2018-11-23T17:09:15.131Z,25.53
2018-11-23T17:11:49.050Z,26.40
2018-11-23T17:14:23.058Z,24.50
2018-11-23T17:16:57.268Z,25.33
2018-11-23T17:19:31.317Z,25.87
2018-11-23T17:22:06.428Z,25.00
2018-11-23T17:24:40.322Z,24.00
2018-11-23T17:27:14.428Z,24.23
2018-11-23T17:29:48.737Z,23.97
2018-11-23T17:32:22.684Z,26.53
2018-11-23T17:34:57.063Z,24.87
2018-11-23T17:37:31.080Z,24.37
2018-11-23T17:40:06.830Z,24.77
2018-11-23T17:42:40.792Z,25.80
2018-11-23T17:45:16.655Z,26.00
2018-11-23T17:47:51.347Z,30.17
2018-11-23T17:50:26.643Z,27.73
2018-11-23T17:53:01.087Z,25.53
2018-11-23T17:55:35.013Z,26.03
2018-11-23T17:58:09.006Z,26.10
2018-11-23T18:00:43.129Z,25.63
2018-11-23T18:03:17.147Z,26.47
2018-11-23T18:05:51.520Z,25.33
2018-11-23T18:08:25.771Z,25.20
2018-11-23T18:10:59.700Z,26.90
2018-11-23T18:13:33.813Z,26.03
2018-11-23T18:16:07.931Z,25.93
2018-11-23T18:18:42.066Z,27.37
2018-11-23T18:21:16.048Z,27.47
2018-11-23T18:23:50.244Z,26.00
2018-11-23T18:26:25.083Z,25.50
2018-11-23T18:28:59.377Z,25.13
2018-11-23T18:31:35.223Z,26.60
2018-11-23T18:34:09.354Z,26.77
2018-11-23T18:36:43.499Z,26.67
2018-11-23T18:39:17.723Z,26.10
2018-11-23T18:41:51.759Z,24.73
2018-11-23T18:44:25.912Z,25.93
2018-11-23T18:47:00.228Z,24.87
2018-11-23T18:49:34.489Z,23.53
2018-11-23T18:52:08.807Z,24.70
2018-11-23T18:54:43.127Z,23.17
2018-11-23T18:57:17.187Z,24.73
2018-11-23T18:59:51.305Z,24.90
2018-11-23T19:02:25.270Z,25.67
2018-11-23T19:04:59.326Z,26.30
2018-11-23T19:07:33.369Z,31.70
2018-11-23T19:10:09.453Z,28.77
2018-11-23T19:12:43.975Z,29.80
2018-11-23T19:15:25.257Z,27.17
2018-11-23T19:17:52.927Z,25.30
2018-11-23T19:20:27.111Z,25.90
2018-11-23T19:23:01.190Z,25.27
2018-11-23T19:25:35.096Z,25.93
2018-11-23T19:28:09.027Z,25.23
2018-11-23T19:30:43.593Z,24.63
2018-11-23T19:33:17.581Z,27.17
2018-11-23T19:35:51.554Z,26.73
2018-11-23T19:38:25.795Z,26.40
2018-11-23T19:41:00.054Z,26.23
2018-11-23T19:43:34.113Z,25.00
2018-11-23T19:46:08.266Z,25.80
2018-11-23T19:48:42.214Z,24.43
2018-11-23T19:51:16.413Z,26.13
2018-11-23T19:53:50.446Z,25.33
2018-11-23T19:56:24.474Z,25.90
2018-11-23T19:58:58.627Z,24.70
2018-11-23T20:01:32.830Z,24.63
2018-11-23T20:04:07.081Z,25.37
2018-11-23T20:06:42.829Z,24.03
2018-11-23T20:09:15.668Z,23.47
2018-11-23T20:11:50.358Z,22.90
2018-11-23T20:14:24.267Z,21.93
2018-11-23T20:16:58.419Z,23.83
2018-11-23T20:19:32.621Z,23.07
2018-11-23T20:22:06.730Z,21.90
2018-11-23T20:24:40.744Z,20.80
2018-11-23T20:27:14.586Z,20.47
2018-11-23T20:29:49.374Z,20.03
2018-11-23T20:32:23.367Z,21.30
2018-11-23T20:34:57.249Z,21.93
2018-11-23T20:37:31.272Z,22.23
2018-11-23T20:40:11.006Z,19.87
2018-11-23T20:42:44.949Z,19.07
2018-11-23T20:45:19.245Z,19.27
2018-11-23T20:47:53.602Z,18.83
2018-11-23T20:50:27.626Z,18.73
2018-11-23T20:53:01.751Z,18.57
2018-11-23T20:55:35.852Z,19.43
2018-11-23T20:58:09.925Z,19.00
2018-11-23T21:00:44.138Z,19.37
2018-11-23T21:03:18.262Z,18.23
2018-11-23T21:05:52.647Z,19.93
2018-11-23T21:08:27.051Z,19.57
2018-11-23T21:11:01.043Z,18.07
2018-11-23T21:13:35.173Z,19.07
2018-11-23T21:16:09.147Z,18.40
2018-11-23T21:18:43.633Z,17.83
2018-11-23T21:21:17.535Z,18.70
2018-11-23T21:23:51.568Z,18.50
2018-11-23T21:26:25.699Z,19.00
2018-11-23T21:28:59.786Z,19.10
2018-11-23T21:31:34.797Z,18.63
2018-11-23T21:34:09.196Z,18.27
2018-11-23T21:36:43.251Z,18.47
2018-11-23T21:39:17.206Z,18.00
2018-11-23T21:41:51.407Z,18.20
2018-11-23T21:44:25.455Z,18.33
2018-11-23T21:46:59.416Z,18.97
2018-11-23T21:49:33.455Z,18.30
2018-11-23T21:52:07.552Z,18.27
2018-11-23T21:54:41.622Z,17.87
2018-11-23T21:57:15.877Z,18.10
2018-11-23T21:59:50.125Z,17.87
2018-11-23T22:02:24.336Z,16.87
2018-11-23T22:04:58.757Z,18.70
2018-11-23T22:07:32.506Z,17.10
2018-11-23T22:10:11.039Z,16.97
2018-11-23T22:12:45.153Z,18.13
2018-11-23T22:15:21.257Z,16.63
2018-11-23T22:17:56.761Z,16.67
2018-11-23T22:20:30.682Z,16.13
2018-11-23T22:23:04.617Z,15.43
2018-11-23T22:25:38.698Z,15.67
2018-11-23T22:28:12.802Z,14.80
2018-11-23T22:30:46.995Z,15.43
2018-11-23T22:33:20.863Z,15.47
2018-11-23T22:35:55.216Z,14.83
2018-11-23T22:38:29.464Z,14.53
2018-11-23T22:41:03.636Z,14.63
2018-11-23T22:43:37.472Z,14.57
2018-11-23T22:46:11.417Z,14.47
2018-11-23T22:48:45.738Z,14.90
2018-11-23T22:51:19.674Z,14.53
2018-11-23T22:53:54.248Z,14.87
2018-11-23T22:56:28.061Z,13.53
2018-11-23T22:59:02.646Z,14.20
2018-11-23T23:01:36.654Z,14.33
2018-11-23T23:04:11.053Z,14.70
2018-11-23T23:06:45.216Z,14.27
2018-11-23T23:09:19.461Z,14.03
2018-11-23T23:11:53.337Z,12.87
2018-11-23T23:14:27.287Z,13.93
2018-11-23T23:17:01.395Z,14.27
2018-11-23T23:19:35.381Z,13.73
2018-11-23T23:22:09.659Z,13.50
2018-11-23T23:24:43.596Z,13.70
2018-11-23T23:27:17.584Z,14.13
2018-11-23T23:29:51.541Z,12.83
2018-11-23T23:32:26.261Z,13.20
2018-11-23T23:35:00.356Z,12.43
2018-11-23T23:37:34.250Z,12.83
2018-11-23T23:40:14.574Z,13.60
2018-11-23T23:42:48.521Z,11.90
2018-11-23T23:45:22.751Z,12.37
2018-11-23T23:47:56.685Z,13.43
2018-11-23T23:50:30.800Z,12.33
2018-11-23T23:53:04.792Z,12.33
2018-11-23T23:55:39.206Z,11.80
2018-11-23T23:58:13.229Z,11.43
